Time;durP1;ratioP1;P1;durP2;ratioP2;P2;SDS_P1;SDS_P2;PMS_P1;PMS_P2;Temp;Humidity;BMP_temperature;BMP_pressure;BME280_temperature;BME280_humidity;BME280_pressure;Samples;Min_cycle;Max_cycle;Signal;HPM_P1;HPM_P2
2022/03/16 00:00:39;;;;;;;5.13;3.53;;;20.20;37.60;;;;;;5148005;27;46891;-17
2022/03/16 00:03:07;;;;;;;4.38;3.25;;;20.20;37.50;;;;;;5147808;27;46784;-16
2022/03/16 00:05:33;;;;;;;4.78;3.38;;;20.20;37.40;;;;;;5147515;27;47016;-17
2022/03/16 00:08:00;;;;;;;4.15;3.08;;;20.20;37.30;;;;;;5147636;27;47272;-16
2022/03/16 00:10:27;;;;;;;3.25;2.95;;;20.30;37.30;;;;;;5147124;27;46848;-16
2022/03/16 00:12:53;;;;;;;4.30;3.08;;;20.30;37.30;;;;;;5147744;27;47256;-16
2022/03/16 00:15:20;;;;;;;4.45;3.55;;;20.30;37.30;;;;;;5147399;27;46904;-17
2022/03/16 00:17:47;;;;;;;3.00;2.70;;;20.30;37.20;;;;;;5146985;27;46746;-16
2022/03/16 00:20:15;;;;;;;3.88;3.22;;;20.20;37.20;;;;;;5147644;27;46885;-17
2022/03/16 00:22:42;;;;;;;3.90;3.35;;;20.20;37.20;;;;;;5147599;27;46902;-16
2022/03/16 00:25:10;;;;;;;6.35;3.17;;;20.20;37.20;;;;;;5146972;27;49034;-16
2022/03/16 00:27:37;;;;;;;4.43;2.83;;;20.20;37.30;;;;;;5147120;27;46807;-16
2022/03/16 00:30:04;;;;;;;4.47;3.22;;;20.10;37.30;;;;;;5147418;27;46856;-16
2022/03/16 00:32:31;;;;;;;3.20;2.90;;;20.10;37.30;;;;;;5147326;27;47301;-16
2022/03/16 00:34:58;;;;;;;3.10;2.80;;;20.10;37.40;;;;;;5147184;27;46974;-17
2022/03/16 00:37:27;;;;;;;5.70;2.97;;;20.10;37.40;;;;;;5147561;27;47057;-16
2022/03/16 00:39:54;;;;;;;3.30;3.00;;;20.00;37.40;;;;;;5151036;27;46816;-16
2022/03/16 00:42:20;;;;;;;3.63;3.22;;;20.00;37.50;;;;;;5151179;27;46942;-16
2022/03/16 00:44:47;;;;;;;4.85;2.63;;;19.90;37.50;;;;;;5150695;27;49054;-16
2022/03/16 00:47:14;;;;;;;3.70;2.70;;;19.90;37.70;;;;;;5150612;27;46976;-16
2022/03/16 00:49:40;;;;;;;4.80;2.97;;;19.90;37.70;;;;;;5150868;27;46785;-17
2022/03/16 00:52:08;;;;;;;3.53;3.10;;;19.80;37.70;;;;;;5150685;27;46801;-16
2022/03/16 00:54:36;;;;;;;4.43;3.00;;;19.80;37.80;;;;;;5150601;27;46912;-16
2022/03/16 00:57:03;;;;;;;4.18;2.85;;;19.80;37.90;;;;;;5150198;27;47084;-15
2022/03/16 00:59:30;;;;;;;3.83;3.00;;;19.70;37.90;;;;;;5150356;27;46966;-16
2022/03/16 01:01:57;;;;;;;4.50;2.70;;;19.70;37.90;;;;;;5150294;27;46884;-16
2022/03/16 01:04:24;;;;;;;3.58;3.25;;;19.60;38.00;;;;;;5150023;27;48994;-16
2022/03/16 01:06:53;;;;;;;3.17;2.88;;;19.60;38.00;;;;;;5150522;27;46988;-16
2022/03/16 01:09:20;;;;;;;3.95;2.75;;;19.60;38.10;;;;;;5150031;27;46891;-16
2022/03/16 01:11:48;;;;;;;3.55;2.97;;;19.50;38.10;;;;;;5150201;27;46894;-16
2022/03/16 01:14:14;;;;;;;3.28;2.67;;;19.50;38.20;;;;;;5150025;27;47133;-16
2022/03/16 01:16:41;;;;;;;3.47;2.85;;;19.40;38.20;;;;;;5150130;27;47090;-16
2022/03/16 01:19:08;;;;;;;3.20;2.90;;;19.40;38.20;;;;;;5150206;27;46852;-16
2022/03/16 01:21:35;;;;;;;3.85;2.72;;;19.40;38.30;;;;;;5150419;27;47295;-16
2022/03/16 01:24:02;;;;;;;3.88;2.90;;;19.40;38.40;;;;;;5149896;27;46737;-16
2022/03/16 01:26:28;;;;;;;3.25;2.95;;;19.30;38.40;;;;;;5149993;27;46897;-15
2022/03/16 01:28:56;;;;;;;6.35;2.95;;;19.30;38.50;;;;;;5149936;27;46804;-16
2022/03/16 01:31:23;;;;;;;3.22;2.92;;;19.40;38.30;;;;;;5150172;27;46924;-15
2022/03/16 01:33:50;;;;;;;3.50;2.83;;;19.50;38.20;;;;;;5149763;27;48113;-16
2022/03/16 01:36:16;;;;;;;3.83;2.70;;;19.60;37.90;;;;;;5149694;27;46875;-16
2022/03/16 01:38:43;;;;;;;3.00;2.42;;;19.70;37.70;;;;;;5149785;27;46886;-17
2022/03/16 01:41:10;;;;;;;3.20;2.72;;;19.70;37.60;;;;;;5150060;27;47397;-16
2022/03/16 01:43:36;;;;;;;2.88;2.60;;;19.80;37.40;;;;;;5149999;27;49134;-17
2022/03/16 01:46:04;;;;;;;2.92;2.60;;;19.90;37.20;;;;;;5149788;27;47164;-16
2022/03/16 01:48:31;;;;;;;3.92;3.00;;;20.00;37.00;;;;;;5149285;27;46796;-16
2022/03/16 01:50:58;;;;;;;3.08;2.80;;;20.10;36.90;;;;;;5149878;27;46887;-16
2022/03/16 01:53:26;;;;;;;3.72;2.85;;;20.20;36.80;;;;;;5149474;27;46895;-17
2022/03/16 01:55:53;;;;;;;3.25;2.95;;;20.20;36.70;;;;;;5149569;27;46913;-16
2022/03/16 01:58:20;;;;;;;2.75;2.55;;;20.20;36.60;;;;;;5149387;27;46858;-17
2022/03/16 02:00:46;;;;;;;3.80;2.83;;;20.20;36.60;;;;;;5149844;27;47094;-16
2022/03/16 02:03:14;;;;;;;2.53;2.33;;;20.30;36.50;;;;;;5149246;27;48115;-17
2022/03/16 02:05:41;;;;;;;3.70;2.55;;;20.30;36.50;;;;;;5149614;27;47180;-16
2022/03/16 02:08:10;;;;;;;3.90;2.67;;;20.20;36.50;;;;;;5149107;27;46926;-16
2022/03/16 02:10:37;;;;;;;2.83;2.63;;;20.20;36.50;;;;;;5149468;27;46844;-16
2022/03/16 02:13:04;;;;;;;2.92;2.63;;;20.20;36.50;;;;;;5148914;27;47911;-16
2022/03/16 02:15:30;;;;;;;3.00;2.72;;;20.20;36.50;;;;;;5149047;27;46884;-16
2022/03/16 02:17:57;;;;;;;3.45;2.70;;;20.20;36.60;;;;;;5149453;27;47004;-16
2022/03/16 02:20:27;;;;;;;3.58;2.75;;;20.10;36.50;;;;;;5149364;27;47280;-17
2022/03/16 02:22:56;;;;;;;2.47;2.28;;;20.10;36.60;;;;;;5148990;27;48784;-16
2022/03/16 02:25:22;;;;;;;2.67;2.47;;;20.10;36.70;;;;;;5149298;27;46995;-16
2022/03/16 02:27:49;;;;;;;3.45;2.95;;;20.00;36.70;;;;;;5149055;27;46998;-16
2022/03/16 02:30:16;;;;;;;3.72;3.00;;;20.00;36.80;;;;;;5149219;27;46907;-16
2022/03/16 02:32:43;;;;;;;4.03;2.67;;;19.90;36.80;;;;;;5148814;27;48178;-16
2022/03/16 02:35:10;;;;;;;3.08;2.78;;;19.90;36.90;;;;;;5148682;27;46796;-16
2022/03/16 02:37:38;;;;;;;2.75;2.50;;;19.90;37.00;;;;;;5149014;27;46796;-16
2022/03/16 02:40:07;;;;;;;2.42;2.22;;;19.80;37.10;;;;;;5149192;27;46933;-16
2022/03/16 02:42:34;;;;;;;3.95;2.78;;;19.80;37.10;;;;;;5148607;27;47060;-17
2022/03/16 02:45:01;;;;;;;3.30;2.80;;;19.70;37.10;;;;;;5149038;27;47419;-16
2022/03/16 02:47:28;;;;;;;2.83;2.63;;;19.70;37.20;;;;;;5148478;27;46891;-16
2022/03/16 02:49:54;;;;;;;3.17;2.63;;;19.70;37.30;;;;;;5149101;27;46926;-18
2022/03/16 02:52:22;;;;;;;3.05;2.28;;;19.60;37.40;;;;;;5148551;27;49063;-16
2022/03/16 02:54:49;;;;;;;2.40;2.20;;;19.50;37.50;;;;;;5148969;27;46944;-17
2022/03/16 02:57:17;;;;;;;3.38;2.50;;;19.50;37.60;;;;;;5148305;27;46882;-16
2022/03/16 02:59:43;;;;;;;3.03;2.38;;;19.40;37.70;;;;;;5147689;27;46900;-17
2022/03/16 03:02:10;;;;;;;3.22;2.70;;;19.40;37.70;;;;;;5148139;27;47982;-17
2022/03/16 03:04:37;;;;;;;4.18;2.90;;;19.40;37.80;;;;;;5148278;27;46892;-17
2022/03/16 03:07:05;;;;;;;3.13;2.83;;;19.30;37.80;;;;;;5148101;27;46795;-15
2022/03/16 03:09:32;;;;;;;4.80;2.78;;;19.30;37.90;;;;;;5148304;27;47234;-16
2022/03/16 03:11:59;;;;;;;3.30;3.00;;;19.30;38.10;;;;;;5148205;27;48110;-16
2022/03/16 03:14:27;;;;;;;3.03;2.60;;;19.30;38.00;;;;;;5148153;27;46951;-16
2022/03/16 03:16:54;;;;;;;3.88;2.80;;;19.40;37.80;;;;;;5148333;27;46922;-16
2022/03/16 03:19:21;;;;;;;2.90;2.60;;;19.40;37.70;;;;;;5148519;27;46867;-17
2022/03/16 03:21:49;;;;;;;2.90;2.60;;;19.50;37.50;;;;;;5147907;27;49076;-16
2022/03/16 03:24:15;;;;;;;2.90;2.60;;;19.60;37.40;;;;;;5148072;27;46906;-16
2022/03/16 03:26:42;;;;;;;2.75;2.55;;;19.70;37.20;;;;;;5148142;27;46754;-16
2022/03/16 03:29:09;;;;;;;2.97;2.72;;;19.80;37.00;;;;;;5148372;27;47354;-17
2022/03/16 03:31:37;;;;;;;2.88;2.53;;;19.90;36.90;;;;;;5148023;27;47843;-16
2022/03/16 03:34:04;;;;;;;3.53;2.65;;;19.90;36.70;;;;;;5148107;27;47205;-16
2022/03/16 03:36:30;;;;;;;3.33;2.70;;;20.00;36.70;;;;;;5147874;27;46888;-17
2022/03/16 03:38:57;;;;;;;3.00;2.72;;;20.10;36.60;;;;;;5147934;27;46852;-16
2022/03/16 03:41:24;;;;;;;3.40;2.60;;;20.10;36.50;;;;;;5147666;27;49112;-16
2022/03/16 03:43:50;;;;;;;2.90;2.70;;;20.10;36.40;;;;;;5147608;27;46950;-17
2022/03/16 03:46:17;;;;;;;2.70;2.40;;;20.20;36.40;;;;;;5147763;27;46861;-16
2022/03/16 03:48:45;;;;;;;2.67;2.47;;;20.20;36.40;;;;;;5148228;27;46976;-17
2022/03/16 03:51:12;;;;;;;3.60;2.92;;;20.20;36.40;;;;;;5147660;27;47944;-16
2022/03/16 03:53:39;;;;;;;2.83;2.40;;;20.10;36.30;;;;;;5147749;27;47458;-17
2022/03/16 03:56:05;;;;;;;2.80;2.55;;;20.10;36.40;;;;;;5147888;27;47121;-16
2022/03/16 03:58:32;;;;;;;2.97;2.33;;;20.10;37.00;;;;;;5147612;27;47268;-17
2022/03/16 04:00:59;;;;;;;2.78;2.58;;;20.10;36.50;;;;;;5147846;27;47069;-16
2022/03/16 04:03:26;;;;;;;3.20;2.58;;;20.10;36.50;;;;;;5147631;27;46876;-16
2022/03/16 04:05:54;;;;;;;2.67;2.47;;;20.00;36.50;;;;;;5147367;27;46837;-16
2022/03/16 04:08:21;;;;;;;3.25;2.70;;;20.00;36.60;;;;;;5147879;27;46896;-16
2022/03/16 04:10:48;;;;;;;3.40;3.10;;;20.00;36.60;;;;;;5146941;27;47897;-16
2022/03/16 04:13:14;;;;;;;2.58;2.38;;;19.90;36.70;;;;;;5147472;27;46875;-17
2022/03/16 04:15:41;;;;;;;3.15;2.50;;;19.90;36.80;;;;;;5147258;27;46945;-17
2022/03/16 04:18:08;;;;;;;2.65;2.45;;;19.90;36.90;;;;;;5147193;27;46857;-16
2022/03/16 04:20:34;;;;;;;2.75;2.47;;;19.80;36.90;;;;;;5147548;27;49096;-17
2022/03/16 04:23:02;;;;;;;2.90;2.20;;;19.80;37.10;;;;;;5147264;27;47156;-16
2022/03/16 04:25:29;;;;;;;2.83;2.60;;;19.70;37.00;;;;;;5147109;27;46918;-16
2022/03/16 04:27:56;;;;;;;3.10;2.42;;;19.70;37.10;;;;;;5147180;27;46879;-16
2022/03/16 04:30:23;;;;;;;2.90;2.58;;;19.70;37.20;;;;;;5147405;27;48111;-17
2022/03/16 04:32:51;;;;;;;2.83;2.63;;;19.60;37.30;;;;;;5146999;27;46885;-16
2022/03/16 04:35:18;;;;;;;4.60;2.63;;;19.60;37.40;;;;;;5147067;27;46885;-16
2022/03/16 04:37:45;;;;;;;2.47;2.28;;;19.50;37.50;;;;;;5147312;27;46865;-16
2022/03/16 04:40:13;;;;;;;3.03;2.75;;;19.50;37.50;;;;;;5147134;27;47934;-17
2022/03/16 04:42:40;;;;;;;2.75;2.55;;;19.40;37.60;;;;;;5147292;27;47480;-16
2022/03/16 04:45:08;;;;;;;2.67;2.47;;;19.40;37.80;;;;;;5147094;27;46828;-17
2022/03/16 04:47:34;;;;;;;2.50;2.30;;;19.40;37.80;;;;;;5146838;27;47270;-16
2022/03/16 04:50:01;;;;;;;2.80;2.60;;;19.30;37.90;;;;;;5147150;27;48090;-17
2022/03/16 04:52:28;;;;;;;2.53;2.28;;;19.30;38.00;;;;;;5146552;27;46872;-16
2022/03/16 04:54:54;;;;;;;2.83;2.53;;;19.20;38.00;;;;;;5147115;27;46892;-16
2022/03/16 04:57:23;;;;;;;3.03;2.63;;;19.20;38.10;;;;;;5146607;27;47290;-16
2022/03/16 04:59:49;;;;;;;2.58;2.35;;;19.10;38.20;;;;;;5146921;27;48091;-16
2022/03/16 05:02:16;;;;;;;3.20;2.90;;;19.20;38.10;;;;;;5146565;27;46821;-16
2022/03/16 05:04:43;;;;;;;2.50;2.30;;;19.30;38.10;;;;;;5146716;27;47005;-17
2022/03/16 05:07:09;;;;;;;2.63;2.42;;;19.40;37.90;;;;;;5146625;27;46919;-16
2022/03/16 05:09:36;;;;;;;2.60;2.40;;;19.50;37.60;;;;;;5146080;27;48216;-16
2022/03/16 05:12:03;;;;;;;2.92;2.63;;;19.60;37.50;;;;;;5127839;27;47224;-16
2022/03/16 05:14:31;;;;;;;2.53;2.33;;;19.70;37.40;;;;;;5146577;27;46882;-17
2022/03/16 05:16:58;;;;;;;2.70;2.50;;;19.80;37.20;;;;;;5146816;27;47272;-16
2022/03/16 05:19:26;;;;;;;2.45;2.25;;;19.90;37.00;;;;;;5146704;27;47931;-17
2022/03/16 05:21:52;;;;;;;3.00;2.75;;;20.00;36.90;;;;;;5146339;27;46911;-16
2022/03/16 05:24:22;;;;;;;2.85;2.60;;;20.00;36.70;;;;;;5148475;27;46851;-16
2022/03/16 05:26:49;;;;;;;2.97;2.30;;;20.10;36.60;;;;;;5150169;27;46942;-16
2022/03/16 05:29:15;;;;;;;2.97;2.78;;;20.10;36.50;;;;;;5149765;27;48091;-16
2022/03/16 05:31:43;;;;;;;2.47;2.28;;;20.10;36.40;;;;;;5149682;27;46899;-16
2022/03/16 05:34:10;;;;;;;2.88;2.67;;;20.10;36.40;;;;;;5149807;27;46906;-17
2022/03/16 05:36:37;;;;;;;2.72;2.53;;;20.20;36.40;;;;;;5149817;27;46910;-16
2022/03/16 05:39:04;;;;;;;2.72;2.53;;;20.20;36.40;;;;;;5149995;27;49048;-16
2022/03/16 05:41:30;;;;;;;2.88;2.67;;;20.20;36.40;;;;;;5149431;27;47403;-16
2022/03/16 05:43:57;;;;;;;2.65;2.45;;;20.10;36.30;;;;;;5149729;27;46835;-17
2022/03/16 05:46:24;;;;;;;2.70;2.50;;;20.10;36.40;;;;;;5149835;27;46828;-16
2022/03/16 05:48:52;;;;;;;2.53;2.33;;;20.10;36.50;;;;;;5149828;27;48093;-16
2022/03/16 05:51:18;;;;;;;2.60;2.40;;;20.10;36.50;;;;;;5149293;27;46919;-16
2022/03/16 05:53:46;;;;;;;2.55;2.35;;;20.10;36.50;;;;;;5149891;27;46890;-17
2022/03/16 05:56:13;;;;;;;2.90;2.58;;;20.00;36.60;;;;;;5149849;27;46899;-16
2022/03/16 05:58:40;;;;;;;2.28;2.17;;;20.00;36.70;;;;;;5149538;27;49050;-17
2022/03/16 06:01:06;;;;;;;2.88;2.67;;;20.00;36.70;;;;;;5149554;27;47211;-16
2022/03/16 06:03:33;;;;;;;3.00;2.75;;;19.90;36.70;;;;;;5149757;27;46862;-16
2022/03/16 06:06:03;;;;;;;2.42;2.22;;;19.90;36.90;;;;;;5149372;27;47292;-16
2022/03/16 06:08:30;;;;;;;2.47;2.28;;;19.80;36.90;;;;;;5149699;27;48160;-16
2022/03/16 06:10:56;;;;;;;3.25;2.63;;;19.80;36.90;;;;;;5149315;27;46922;-16
2022/03/16 06:13:23;;;;;;;2.83;2.63;;;19.80;37.00;;;;;;5149497;27;46967;-15
2022/03/16 06:15:50;;;;;;;2.60;2.40;;;19.70;37.00;;;;;;5149628;27;46951;-17
2022/03/16 06:18:17;;;;;;;2.25;2.05;;;19.70;37.10;;;;;;5148885;27;48731;-16
2022/03/16 06:20:43;;;;;;;2.70;2.50;;;19.70;37.20;;;;;;5149322;27;46919;-16
2022/03/16 06:23:12;;;;;;;2.42;2.22;;;19.60;37.30;;;;;;5148958;27;46899;-16
2022/03/16 06:25:39;;;;;;;2.60;2.40;;;19.60;37.30;;;;;;5149138;27;46910;-16
2022/03/16 06:28:05;;;;;;;2.70;2.50;;;19.50;37.50;;;;;;5148945;27;48208;-16
2022/03/16 06:30:32;;;;;;;2.63;2.20;;;19.50;37.50;;;;;;5148862;27;47012;-16
2022/03/16 06:32:59;;;;;;;2.30;2.13;;;19.40;37.60;;;;;;5148286;27;46982;-16
2022/03/16 06:35:25;;;;;;;2.60;2.40;;;19.40;37.70;;;;;;5149196;27;46864;-16
2022/03/16 06:37:52;;;;;;;2.50;2.30;;;19.40;37.80;;;;;;5148770;27;48049;-16
2022/03/16 06:40:20;;;;;;;2.92;2.60;;;19.30;37.90;;;;;;5148709;27;46991;-16
2022/03/16 06:42:59;;;;;;;2.70;2.50;;;19.20;37.90;;;;;;5148935;27;47088;-16
2022/03/16 06:45:27;;;;;;;3.03;2.60;;;19.20;38.10;;;;;;5149029;27;47111;-16
2022/03/16 06:47:54;;;;;;;2.67;2.30;;;19.30;38.00;;;;;;5148617;27;47762;-16
2022/03/16 06:50:22;;;;;;;3.35;2.60;;;19.30;37.90;;;;;;5148703;27;47009;-16
2022/03/16 06:52:49;;;;;;;3.60;2.30;;;19.40;37.80;;;;;;5145070;27;46926;-16
2022/03/16 06:55:16;;;;;;;2.42;2.22;;;19.50;37.60;;;;;;5127878;27;47134;-16
2022/03/16 06:57:44;;;;;;;2.85;2.40;;;19.60;37.40;;;;;;5127360;27;48927;-16
2022/03/16 07:00:13;;;;;;;2.28;2.10;;;19.70;37.30;;;;;;5141163;27;47036;-17
2022/03/16 07:02:50;;;;;;;2.60;2.40;;;19.80;37.10;;;;;;5148354;27;46856;-16
2022/03/16 07:05:17;;;;;;;2.50;2.30;;;19.90;36.90;;;;;;5149059;27;46887;-19
2022/03/16 07:07:44;;;;;;;2.70;2.50;;;20.00;37.50;;;;;;5147707;27;48821;-19
2022/03/16 07:10:11;;;;;;;3.28;2.67;;;20.00;36.70;;;;;;5147491;27;46895;-19
2022/03/16 07:12:37;;;;;;;3.03;2.70;;;20.10;36.70;;;;;;5147527;27;46819;-19
2022/03/16 07:15:08;;;;;;;2.50;2.20;;;20.10;36.70;;;;;;5148505;27;47147;-20
2022/03/16 07:17:35;;;;;;;2.13;2.03;;;20.10;36.60;;;;;;5147631;27;48130;-19
2022/03/16 07:20:03;;;;;;;2.40;2.22;;;20.10;36.60;;;;;;5147907;27;47477;-19
2022/03/16 07:22:30;;;;;;;2.53;2.33;;;20.10;36.60;;;;;;5127059;27;47038;-20
2022/03/16 07:24:56;;;;;;;2.67;2.47;;;20.10;36.50;;;;;;5127591;27;46934;-19
2022/03/16 07:27:23;;;;;;;2.45;2.10;;;20.10;36.60;;;;;;5127344;27;46933;-19
2022/03/16 07:29:50;;;;;;;2.50;2.30;;;20.10;36.60;;;;;;5127274;27;47394;-19
2022/03/16 07:32:18;;;;;;;2.70;2.50;;;20.10;36.70;;;;;;5127255;27;46883;-19
2022/03/16 07:34:46;;;;;;;2.60;2.40;;;20.10;36.80;;;;;;5127261;27;46811;-18
2022/03/16 07:37:12;;;;;;;2.65;2.45;;;20.00;36.70;;;;;;5126628;27;48002;-20
2022/03/16 07:39:39;;;;;;;2.90;2.50;;;20.00;36.70;;;;;;5139592;27;47019;-16
2022/03/16 07:42:06;;;;;;;2.60;2.40;;;20.00;36.80;;;;;;5147887;27;47011;-16
2022/03/16 07:44:33;;;;;;;2.90;2.40;;;20.00;36.80;;;;;;5148042;27;46932;-16
2022/03/16 07:46:59;;;;;;;2.92;2.65;;;19.90;36.90;;;;;;5146904;27;48229;-16
2022/03/16 07:49:28;;;;;;;2.65;2.45;;;19.90;37.00;;;;;;5147795;27;46990;-16
2022/03/16 07:51:55;;;;;;;3.15;2.55;;;19.80;37.00;;;;;;5147344;27;46861;-16
2022/03/16 07:54:22;;;;;;;3.08;2.78;;;19.80;37.10;;;;;;5147466;27;47118;-17
2022/03/16 07:56:49;;;;;;;2.67;2.47;;;19.80;37.10;;;;;;5146940;27;48230;-16
2022/03/16 07:59:16;;;;;;;2.90;2.60;;;19.70;37.30;;;;;;5147553;27;47533;-16
2022/03/16 08:01:44;;;;;;;3.83;2.90;;;19.70;37.40;;;;;;5147257;27;46944;-16
2022/03/16 08:04:11;;;;;;;3.63;2.90;;;19.70;37.50;;;;;;5147983;27;46969;-16
2022/03/16 08:06:39;;;;;;;3.58;2.90;;;19.70;37.50;;;;;;5147590;27;47945;-16
2022/03/16 08:09:06;;;;;;;2.92;2.63;;;19.60;37.70;;;;;;5147562;27;47522;-16
2022/03/16 08:11:33;;;;;;;3.28;2.97;;;19.60;37.80;;;;;;5147319;27;46903;-17
2022/03/16 08:13:59;;;;;;;2.90;2.70;;;19.50;37.80;;;;;;5147792;27;46886;-16
2022/03/16 08:16:26;;;;;;;3.58;3.05;;;19.50;37.90;;;;;;5146985;27;48176;-16
2022/03/16 08:18:53;;;;;;;3.47;3.17;;;19.40;38.00;;;;;;5146755;27;46968;-16
2022/03/16 08:21:19;;;;;;;3.25;2.95;;;19.40;38.10;;;;;;5146958;27;46788;-17
2022/03/16 08:23:48;;;;;;;3.42;3.13;;;19.40;38.20;;;;;;5147350;27;47308;-17
2022/03/16 08:26:16;;;;;;;3.88;3.20;;;19.30;38.20;;;;;;5146542;27;47786;-16
2022/03/16 08:28:45;;;;;;;3.30;3.00;;;19.30;38.40;;;;;;5146916;27;46785;-16
2022/03/16 08:31:14;;;;;;;3.17;2.88;;;19.30;38.40;;;;;;5146813;27;46959;-16
2022/03/16 08:33:41;;;;;;;2.40;2.20;;;19.20;38.50;;;;;;5147467;27;46979;-16
2022/03/16 08:36:08;;;;;;;3.15;2.85;;;19.30;38.50;;;;;;5146656;27;47946;-16
2022/03/16 08:38:36;;;;;;;3.40;2.72;;;19.30;38.30;;;;;;5146910;27;47188;-16
2022/03/16 08:41:05;;;;;;;3.80;3.20;;;19.40;38.20;;;;;;5146938;27;46972;-16
2022/03/16 08:43:32;;;;;;;3.20;2.88;;;19.60;38.10;;;;;;5147218;27;47041;-16
2022/03/16 08:45:59;;;;;;;2.85;2.50;;;19.70;37.80;;;;;;5146345;27;47116;-16
2022/03/16 08:48:26;;;;;;;3.25;2.65;;;19.80;37.60;;;;;;5146699;27;46954;-16
2022/03/16 08:50:53;;;;;;;2.92;2.72;;;19.90;37.30;;;;;;5146282;27;46928;-17
2022/03/16 08:53:20;;;;;;;2.90;2.70;;;20.00;37.10;;;;;;5145489;27;47000;-16
2022/03/16 08:55:46;;;;;;;2.80;2.33;;;20.10;37.10;;;;;;5145279;27;49096;-16
2022/03/16 08:58:15;;;;;;;2.67;2.47;;;20.10;37.00;;;;;;5146447;27;47116;-16
2022/03/16 09:00:42;;;;;;;2.70;2.50;;;20.20;36.70;;;;;;5150078;27;47127;-16
2022/03/16 09:03:09;;;;;;;2.78;2.58;;;20.20;37.50;;;;;;5150183;27;46804;-16
2022/03/16 09:05:36;;;;;;;3.00;2.70;;;20.20;36.90;;;;;;5150210;27;46905;-17
2022/03/16 09:08:04;;;;;;;2.80;2.60;;;20.20;36.90;;;;;;5150300;27;47133;-16
2022/03/16 09:10:31;;;;;;;3.15;2.85;;;20.20;36.70;;;;;;5148875;27;46844;-16
2022/03/16 09:12:57;;;;;;;2.80;2.60;;;20.20;36.90;;;;;;5150249;27;47369;-16
2022/03/16 09:15:25;;;;;;;3.50;2.83;;;20.20;36.90;;;;;;5150116;27;47068;-17
2022/03/16 09:17:52;;;;;;;3.00;2.80;;;20.20;36.90;;;;;;5149959;27;46871;-17
2022/03/16 09:20:19;;;;;;;3.00;2.80;;;20.20;37.00;;;;;;5150021;27;46890;-16
2022/03/16 09:22:46;;;;;;;2.83;2.63;;;20.20;37.00;;;;;;5150365;27;47116;-16
2022/03/16 09:25:12;;;;;;;3.45;2.90;;;20.10;37.10;;;;;;5149021;27;48111;-16
2022/03/16 09:27:39;;;;;;;2.97;2.75;;;20.10;37.10;;;;;;5147801;27;47011;-16
2022/03/16 09:30:07;;;;;;;3.15;2.72;;;20.10;37.20;;;;;;5150071;27;46957;-16
2022/03/16 09:32:35;;;;;;;3.08;2.70;;;20.10;37.20;;;;;;5150105;27;47274;-16
2022/03/16 09:35:04;;;;;;;3.17;2.88;;;20.10;37.10;;;;;;5149820;27;49673;-16
2022/03/16 09:37:31;;;;;;;3.20;2.83;;;20.00;37.30;;;;;;5149894;27;46943;-18
2022/03/16 09:39:57;;;;;;;2.92;2.55;;;20.00;37.30;;;;;;5130946;27;46935;-16
2022/03/16 09:42:25;;;;;;;3.58;2.78;;;20.00;37.40;;;;;;5149680;27;47088;-16
2022/03/16 09:44:53;;;;;;;5.93;3.17;;;20.00;37.40;;;;;;5149560;27;48127;-16
2022/03/16 09:47:22;;;;;;;4.28;3.20;;;19.90;38.20;;;;;;5149612;27;47419;-26
2022/03/16 09:49:51;;;;;;;3.47;3.03;;;19.90;39.00;;;;;;5149679;27;46974;-16
2022/03/16 09:52:17;;;;;;;3.47;2.90;;;19.90;38.60;;;;;;5149453;27;47302;-15
2022/03/16 09:54:44;;;;;;;3.10;2.80;;;19.90;38.40;;;;;;5148958;27;47874;-16
2022/03/16 09:57:11;;;;;;;4.00;3.38;;;19.90;38.20;;;;;;5149281;27;46823;-17
2022/03/16 09:59:38;;;;;;;8.05;3.22;;;19.90;38.10;;;;;;5149764;27;46791;-17
2022/03/16 10:02:06;;;;;;;5.07;3.20;;;19.90;38.10;;;;;;5147240;27;47952;-19
2022/03/16 10:04:35;;;;;;;3.60;3.03;;;19.90;38.20;;;;;;5145218;27;48133;-19
2022/03/16 10:07:04;;;;;;;4.13;3.35;;;20.00;38.30;;;;;;5147282;27;46953;-20
2022/03/16 10:15:03;;;;;;;6.88;3.38;;;20.00;38.40;;;;;;5142967;27;46816;-25
2022/03/16 10:17:45;;;;;;;9.25;3.95;;;20.10;38.40;;;;;;5141877;27;47097;-20
2022/03/16 10:20:28;;;;;;;5.45;3.55;;;20.00;38.30;;;;;;5140671;27;46932;-19
2022/03/16 10:22:58;;;;;;;4.32;3.47;;;20.10;38.20;;;;;;5142861;27;47028;-20
2022/03/16 10:25:25;;;;;;;5.75;3.65;;;20.10;38.40;;;;;;5158281;27;47908;-19
2022/03/16 10:27:52;;;;;;;3.75;3.28;;;20.10;38.70;;;;;;5144269;27;46971;-20
2022/03/16 10:30:20;;;;;;;5.00;3.72;;;20.10;38.70;;;;;;5161415;27;46963;-20
2022/03/16 10:32:53;;;;;;;5.15;3.83;;;20.10;38.60;;;;;;5133823;27;46952;-19
2022/03/16 10:35:20;;;;;;;4.70;3.92;;;20.10;38.70;;;;;;5145846;27;48172;-20
2022/03/16 10:37:48;;;;;;;6.03;3.60;;;20.10;38.80;;;;;;5146065;27;47405;-20
2022/03/16 10:40:19;;;;;;;4.93;4.10;;;20.10;38.80;;;;;;5144638;27;47256;-21
2022/03/16 10:48:16;;;;;;;4.53;3.75;;;20.10;38.80;;;;;;5145852;27;46952;-17
2022/03/16 10:50:42;;;;;;;5.22;3.70;;;20.10;38.70;;;;;;5145154;27;47312;-17
2022/03/16 10:53:10;;;;;;;4.00;3.58;;;20.20;38.80;;;;;;5145036;27;47254;-17
2022/03/16 10:55:39;;;;;;;5.25;4.25;;;20.20;38.90;;;;;;5148020;27;48052;-19
2022/03/16 10:58:07;;;;;;;6.07;4.28;;;20.20;38.80;;;;;;5147071;27;46783;-15
2022/03/16 11:00:34;;;;;;;4.72;4.10;;;20.20;39.00;;;;;;5156585;27;46951;-15
2022/03/16 11:03:02;;;;;;;4.75;3.70;;;20.20;39.00;;;;;;5154833;27;46892;-14
2022/03/16 11:05:28;;;;;;;4.20;3.80;;;20.20;39.10;;;;;;5146250;27;47250;-15
2022/03/16 11:07:55;;;;;;;5.38;4.07;;;20.30;38.90;;;;;;5140928;27;47434;-15
2022/03/16 11:10:22;;;;;;;5.07;4.05;;;20.30;38.80;;;;;;5154599;27;47041;-16
2022/03/16 11:15:34;;;;;;;3.97;3.58;;;20.30;38.90;;;;;;5158254;27;47482;-19
2022/03/16 11:18:01;;;;;;;6.00;4.50;;;20.30;39.10;;;;;;5137613;27;47179;-19
2022/03/16 11:20:32;;;;;;;5.68;4.35;;;20.30;39.10;;;;;;5154349;27;47027;-18
2022/03/16 11:25:55;;;;;;;9.57;4.28;;;20.30;39.10;;;;;;5150036;27;46974;-18
2022/03/16 11:28:34;;;;;;;7.18;4.00;;;20.30;39.10;;;;;;5145307;27;46994;-16
2022/03/16 11:31:01;;;;;;;5.15;4.15;;;20.30;39.50;;;;;;5142717;27;47317;-16
2022/03/16 11:33:28;;;;;;;6.00;4.20;;;20.30;39.00;;;;;;5146993;27;47267;-19
2022/03/16 11:35:56;;;;;;;5.68;3.95;;;20.30;39.10;;;;;;5144472;27;48964;-19
2022/03/16 11:38:23;;;;;;;12.90;4.65;;;20.30;39.10;;;;;;5144890;27;46919;-18
2022/03/16 11:40:51;;;;;;;12.63;5.43;;;20.30;39.10;;;;;;5145251;27;46931;-19
2022/03/16 11:43:22;;;;;;;6.25;4.40;;;20.40;39.70;;;;;;5156278;27;46891;-19
2022/03/16 11:45:54;;;;;;;7.63;4.65;;;20.40;38.70;;;;;;5147877;27;49107;-18
2022/03/16 11:48:41;;;;;;;4.88;4.38;;;20.50;38.80;;;;;;5159342;27;47019;-18
2022/03/16 11:51:21;;;;;;;5.97;4.25;;;20.40;38.70;;;;;;5160040;27;46928;-17
2022/03/16 11:54:06;;;;;;;4.82;4.32;;;20.40;38.80;;;;;;5138797;27;46996;-17
2022/03/16 11:56:47;;;;;;;5.47;4.53;;;20.30;38.90;;;;;;5152745;27;47947;-18
2022/03/16 11:59:40;;;;;;;6.40;4.60;;;20.30;39.10;;;;;;5152602;27;46942;-16
2022/03/16 12:02:13;;;;;;;5.13;4.22;;;20.30;39.10;;;;;;5131908;27;47080;-16
2022/03/16 12:04:42;;;;;;;4.32;3.92;;;20.20;39.20;;;;;;5144313;27;47043;-16
2022/03/16 12:07:10;;;;;;;7.15;4.97;;;20.20;39.30;;;;;;5140905;27;48839;-16
2022/03/16 12:09:39;;;;;;;6.53;5.13;;;20.20;39.40;;;;;;5142063;27;46872;-17
2022/03/16 12:14:57;;;;;;;8.52;6.80;;;20.10;39.20;;;;;;5152595;27;47571;-14
2022/03/16 12:17:25;;;;;;;7.47;5.32;;;20.10;39.70;;;;;;5161220;27;49143;-14
2022/03/16 12:20:09;;;;;;;11.20;5.80;;;20.10;39.50;;;;;;5142294;27;47098;-13
2022/03/16 12:22:42;;;;;;;9.55;5.50;;;20.10;39.50;;;;;;5153471;27;47023;-14
2022/03/16 12:25:29;;;;;;;11.85;5.53;;;20.10;39.50;;;;;;5150370;27;47120;-15
2022/03/16 12:30:41;;;;;;;15.00;8.77;;;20.10;39.60;;;;;;5144388;27;46825;-14
2022/03/16 12:33:11;;;;;;;17.77;10.73;;;20.10;40.20;;;;;;5148999;27;47267;-14
2022/03/16 12:35:38;;;;;;;17.35;12.57;;;20.00;41.20;;;;;;5151661;27;46871;-14
2022/03/16 12:38:06;;;;;;;15.25;11.23;;;19.90;41.80;;;;;;5150379;27;48094;-14
2022/03/16 12:40:33;;;;;;;17.77;12.07;;;19.80;42.00;;;;;;5147058;27;47019;-14
2022/03/16 12:43:01;;;;;;;17.88;11.65;;;19.80;42.10;;;;;;5146231;27;47053;-14
2022/03/16 12:45:30;;;;;;;17.20;12.00;;;19.70;42.20;;;;;;5150036;27;47326;-16
2022/03/16 12:48:03;;;;;;;14.32;10.75;;;19.70;41.90;;;;;;5137991;27;47162;-15
2022/03/16 12:50:31;;;;;;;14.38;11.20;;;19.80;42.20;;;;;;5130805;27;46877;-15
2022/03/16 12:52:58;;;;;;;19.02;13.88;;;20.00;42.20;;;;;;5149272;27;46863;-15
2022/03/16 12:55:25;;;;;;;18.67;13.23;;;20.10;42.60;;;;;;5147772;27;46929;-15
2022/03/16 12:57:52;;;;;;;18.02;13.57;;;20.20;42.60;;;;;;5139147;27;49235;-15
2022/03/16 13:00:19;;;;;;;18.48;13.50;;;20.30;42.50;;;;;;5138212;27;47081;-15
2022/03/16 13:02:47;;;;;;;18.50;14.15;;;20.40;42.40;;;;;;5159340;27;47054;-14
2022/03/16 13:05:18;;;;;;;18.98;13.27;;;20.40;42.30;;;;;;5160436;27;47130;-15
2022/03/16 13:07:46;;;;;;;22.25;15.65;;;20.50;42.50;;;;;;5148044;27;49467;-14
2022/03/16 13:10:12;;;;;;;20.10;13.82;;;20.40;42.50;;;;;;5144690;27;47130;-14